createdAt,value
2019-05-01T00:06:01.650Z,24.6
2019-05-01T00:16:00.865Z,24.6
2019-05-01T00:26:00.081Z,24.6
2019-05-01T00:35:59.301Z,24.6
2019-05-01T00:45:58.515Z,24.6
2019-05-01T00:55:57.731Z,24.6
2019-05-01T01:05:56.939Z,24.6
2019-05-01T01:15:56.153Z,24.6
2019-05-01T01:25:55.369Z,24.6
2019-05-01T01:35:54.586Z,24.5
2019-05-01T01:45:53.804Z,24.5
2019-05-01T01:55:53.020Z,24.5
2019-05-01T02:05:52.231Z,24.5
2019-05-01T02:15:51.444Z,24.5
2019-05-01T02:25:50.654Z,24.5
2019-05-01T02:35:49.868Z,24.4
2019-05-01T02:45:49.089Z,24.4
2019-05-01T02:55:48.297Z,24.4
2019-05-01T03:05:47.510Z,24.4
2019-05-01T03:15:46.774Z,24.4
2019-05-01T03:25:45.942Z,24.4
2019-05-01T03:35:45.154Z,24.4
2019-05-01T03:45:44.366Z,24.3
2019-05-01T03:55:43.579Z,24.4
2019-05-01T04:05:42.790Z,24.4
2019-05-01T04:15:42.002Z,24.3
2019-05-01T04:25:41.215Z,24.3
2019-05-01T04:35:40.427Z,24.3
2019-05-01T04:45:39.643Z,24.3
2019-05-01T04:55:38.908Z,24.3
2019-05-01T05:05:38.068Z,24.3
2019-05-01T05:15:37.274Z,24.3
2019-05-01T05:25:36.495Z,24.4
2019-05-01T05:35:35.717Z,24.4
2019-05-01T05:45:34.923Z,24.3
2019-05-01T05:55:34.132Z,24.6
2019-05-01T06:05:33.355Z,24.4
2019-05-01T06:15:32.570Z,24.7
2019-05-01T06:25:31.791Z,24.5
2019-05-01T06:35:33.862Z,24.6
2019-05-01T06:45:30.216Z,24.9
2019-05-01T06:55:29.432Z,24.9
2019-05-01T07:05:28.691Z,24.9
2019-05-01T07:15:28.434Z,24.8
2019-05-01T07:25:27.070Z,24.9
2019-05-01T07:35:26.344Z,24.9
2019-05-01T07:45:26.607Z,24.9
2019-05-01T07:55:24.723Z,24.9
2019-05-01T08:05:23.938Z,24.9
2019-05-01T08:15:27.202Z,24.8
2019-05-01T08:25:22.372Z,24.6
2019-05-01T08:35:21.584Z,24.7
2019-05-01T08:45:20.804Z,24.8
2019-05-01T08:55:20.020Z,24.7
2019-05-01T09:05:28.093Z,24.7
2019-05-01T09:15:18.448Z,24.8
2019-05-01T09:25:17.669Z,24.8
2019-05-01T09:35:19.516Z,24.8
2019-05-01T09:45:16.100Z,24.7
2019-05-01T09:55:17.799Z,24.6
2019-05-01T10:05:14.527Z,24.6
2019-05-01T10:15:13.743Z,24.7
2019-05-01T10:25:13.560Z,24.7
2019-05-01T10:35:14.097Z,24.7
2019-05-01T10:45:11.402Z,24.6
2019-05-01T10:55:10.624Z,24.7
2019-05-01T11:05:09.832Z,24.5
2019-05-01T11:15:09.053Z,24.7
2019-05-01T11:25:08.258Z,24.6
2019-05-01T11:35:07.474Z,24.6
2019-05-01T11:45:06.702Z,24.6
2019-05-01T11:55:05.919Z,24.4
2019-05-01T12:05:05.124Z,24.4
2019-05-01T12:15:04.338Z,24.3
2019-05-01T12:25:03.561Z,24.6
2019-05-01T12:35:02.774Z,24.7
2019-05-01T12:45:01.989Z,24.6
2019-05-01T12:55:01.197Z,24.6
2019-05-01T13:05:00.410Z,24.6
2019-05-01T13:14:59.630Z,24.5
2019-05-01T13:24:58.843Z,24.6
2019-05-01T13:34:58.077Z,24.6
2019-05-01T13:44:57.271Z,24.6
2019-05-01T13:54:56.484Z,24.6
2019-05-01T14:04:55.694Z,24.6
2019-05-01T14:14:54.961Z,24.6
2019-05-01T14:24:54.125Z,24.6
2019-05-01T14:34:53.340Z,24.6
2019-05-01T14:44:52.556Z,24.7
2019-05-01T14:54:51.772Z,24.8
2019-05-01T15:04:50.991Z,24.7
2019-05-01T15:14:50.219Z,24.8
2019-05-01T15:24:49.438Z,24.8
2019-05-01T15:34:48.661Z,24.8
2019-05-01T15:44:47.916Z,24.8
2019-05-01T15:54:47.117Z,24.8
2019-05-01T16:04:46.324Z,24.8
2019-05-01T16:14:45.543Z,24.6
2019-05-01T16:24:44.771Z,24.6
2019-05-01T16:34:43.987Z,24.9
2019-05-01T16:44:43.204Z,24.9
2019-05-01T16:54:42.426Z,24.8
2019-05-01T17:04:41.631Z,24.7
2019-05-01T17:14:40.851Z,24.6
2019-05-01T17:24:40.073Z,24.6
2019-05-01T17:34:39.298Z,24.7
2019-05-01T17:44:39.588Z,24.6
2019-05-01T17:54:37.721Z,24.6
2019-05-01T18:04:36.999Z,24.6
2019-05-01T18:14:36.159Z,24.6
2019-05-01T18:24:35.375Z,24.6
2019-05-01T18:34:38.208Z,24.7
2019-05-01T18:44:33.817Z,24.8
2019-05-01T18:54:34.921Z,24.8
2019-05-01T19:04:32.247Z,24.8
2019-05-01T19:14:31.513Z,25.1
2019-05-01T19:24:32.384Z,24.9
2019-05-01T19:34:29.930Z,24.9
2019-05-01T19:44:29.122Z,24.9
2019-05-01T19:54:29.950Z,24.9
2019-05-01T20:04:27.555Z,24.9
2019-05-01T20:14:26.774Z,24.9
2019-05-01T20:24:25.984Z,24.8
2019-05-01T20:34:25.201Z,24.8
2019-05-01T20:44:25.788Z,24.6
2019-05-01T20:54:23.640Z,24.8
2019-05-01T21:04:22.858Z,24.7
2019-05-01T21:14:22.808Z,24.7
2019-05-01T21:24:21.294Z,24.6
2019-05-01T21:34:20.507Z,24.6
2019-05-01T21:44:19.723Z,24.6
2019-05-01T21:54:20.582Z,24.6
2019-05-01T22:04:18.150Z,24.6
2019-05-01T22:14:17.366Z,24.6
2019-05-01T22:24:16.591Z,24.6
2019-05-01T22:34:15.854Z,24.4
2019-05-01T22:44:17.834Z,24.5
2019-05-01T22:54:14.234Z,24.5
2019-05-01T23:04:17.041Z,24.5
2019-05-01T23:14:12.660Z,24.5
2019-05-01T23:24:11.875Z,24.4
2019-05-01T23:34:11.099Z,24.4
2019-05-01T23:44:10.314Z,24.4
2019-05-01T23:54:09.526Z,24.4
